OETF Airport Information

Runway Information
Runway 07 Length 12254 ft width 148 ft
Elevation 4848 ft Threshold 0 ft Heading 75
Runway 25 Length 12254 ft Width 148 ft
Elevation 4737 ft Threshold 0 ft Heading 255
Runway 17 Length 10991 ft width 148 ft
Elevation 4753 ft Threshold 0 ft Heading 172
Runway 35 Length 10991 ft Width 148 ft
Elevation 4775 ft Threshold 0 ft Heading 352
Airport Frequencies
Type A/G Name SAUDIA RDO Frequency 131.5 MHZ
Type APP Name APP Frequency 119.7 MHZ
Type ATIS Name ATIS Frequency 112.7 MHZ
Type GND Name GND Frequency 121.9 MHZ
Type POST Name HOTEL 4 Frequency 730 MHZ
Type Radar Name Taif Radar Frequency 123.7 MHZ
Type TWR Name TWR Frequency 118.7 MHZ
Airport Navaids
Type VORTAC Name Taif Frequency 112700 KHZ
Airport Weather Information & NOTAM
ADDS - METARS form results

(2018 UTC 16 July 2018)
 
METAR text: OETF 162000Z 28006KT CAVOK 26/02 Q1018 NOSIG
Conditions at: OETF (TAIF (CIV/MIL) , SA) observed 2000 UTC 16 July 2018
Temperature: 26.0°C (79°F)
Dewpoint: 2.0°C (36°F) [RH = 21%]
Pressure (altimeter): 30.06 inches Hg (1018.0 mb)
Winds: from the W (280 degrees) at 7 MPH (6 knots; 3.1 m/s)
Visibility: 6 or more miles (10+ km)
Ceiling: ceiling and visibility are OK
Clouds: unknown
Weather: no significant weather observed at this time